Time;durP1;ratioP1;P1;durP2;ratioP2;P2;SDS_P1;SDS_P2;PMS_P1;PMS_P2;Temp;Humidity;BMP_temperature;BMP_pressure;BME280_temperature;BME280_humidity;BME280_pressure;Samples;Min_cycle;Max_cycle;Signal;HPM_P1;HPM_P2
2023/09/20 00:00:24;;;;;;;1.83;0.60;;;20.20;70.30;;;;;;5034454;28;20147;-67
2023/09/20 00:02:50;;;;;;;1.63;0.85;;;20.20;70.30;;;;;;5068791;28;20023;-67
2023/09/20 00:05:18;;;;;;;3.88;1.15;;;20.20;70.30;;;;;;5059577;28;20399;-67
2023/09/20 00:07:43;;;;;;;2.30;0.80;;;20.20;70.30;;;;;;5067176;28;20491;-67
2023/09/20 00:10:15;;;;;;;2.88;1.15;;;20.20;70.30;;;;;;5047554;28;20059;-65
2023/09/20 00:12:42;;;;;;;0.93;0.60;;;20.20;70.30;;;;;;5067597;28;20024;-67
2023/09/20 00:15:08;;;;;;;2.38;1.02;;;20.20;70.30;;;;;;5067831;28;20281;-67
2023/09/20 00:17:36;;;;;;;1.23;0.98;;;20.20;70.30;;;;;;5065399;28;20472;-65
2023/09/20 00:20:14;;;;;;;2.67;1.02;;;20.20;70.70;;;;;;5064698;28;20023;-66
2023/09/20 00:22:42;;;;;;;1.45;0.93;;;20.20;70.20;;;;;;5065110;28;20120;-67
2023/09/20 00:25:09;;;;;;;1.33;0.95;;;20.20;70.90;;;;;;5064051;28;20352;-65
2023/09/20 00:27:35;;;;;;;1.52;1.02;;;20.20;70.30;;;;;;5063728;28;20036;-65
2023/09/20 00:30:03;;;;;;;2.28;0.70;;;20.20;70.20;;;;;;5062130;28;20439;-65
2023/09/20 00:32:30;;;;;;;1.60;1.02;;;20.20;70.30;;;;;;5062779;28;20035;-65
2023/09/20 00:34:56;;;;;;;1.92;1.13;;;20.20;70.40;;;;;;5066220;28;20051;-66
2023/09/20 00:37:22;;;;;;;1.13;0.90;;;20.20;70.40;;;;;;5047999;28;20131;-66
2023/09/20 00:39:48;;;;;;;0.70;0.60;;;20.30;70.50;;;;;;5048177;28;20689;-65
2023/09/20 00:42:13;;;;;;;0.85;0.85;;;20.30;70.50;;;;;;5066535;28;20063;-65
2023/09/20 00:44:39;;;;;;;0.88;0.80;;;20.30;70.50;;;;;;5064098;28;20040;-65
2023/09/20 00:47:06;;;;;;;2.05;0.57;;;20.30;70.50;;;;;;5050292;28;20078;-65
2023/09/20 00:49:34;;;;;;;2.00;0.70;;;20.20;70.50;;;;;;5051686;28;20036;-65
2023/09/20 00:52:03;;;;;;;1.15;0.82;;;20.20;70.50;;;;;;5066043;28;20028;-64
2023/09/20 00:54:29;;;;;;;4.10;1.50;;;20.20;70.60;;;;;;5062550;28;20032;-65
2023/09/20 00:56:55;;;;;;;3.08;1.13;;;20.20;70.70;;;;;;5067459;28;20031;-65
2023/09/20 00:59:21;;;;;;;3.33;0.90;;;20.20;70.80;;;;;;5045371;28;20029;-65
2023/09/20 01:01:48;;;;;;;1.75;1.00;;;20.20;71.00;;;;;;5068306;28;20032;-65
2023/09/20 01:04:14;;;;;;;2.17;0.95;;;20.10;70.90;;;;;;5068822;28;20051;-65
2023/09/20 01:06:41;;;;;;;1.98;0.80;;;20.10;71.00;;;;;;5068410;28;20040;-65
2023/09/20 01:09:08;;;;;;;0.88;0.60;;;20.10;70.90;;;;;;5067919;28;20119;-65
2023/09/20 01:11:34;;;;;;;1.10;0.98;;;20.20;71.00;;;;;;5067305;28;20546;-65
2023/09/20 01:14:01;;;;;;;1.90;1.10;;;20.20;71.00;;;;;;5066785;28;20136;-65
2023/09/20 01:16:27;;;;;;;2.30;0.93;;;20.20;71.00;;;;;;5033968;28;20033;-65
2023/09/20 01:18:52;;;;;;;1.27;0.90;;;20.20;71.00;;;;;;5066828;28;20035;-65
2023/09/20 01:21:18;;;;;;;4.15;0.95;;;20.20;71.00;;;;;;5065255;28;20148;-65
2023/09/20 01:23:44;;;;;;;0.90;0.60;;;20.10;70.90;;;;;;5062028;28;20077;-65
2023/09/20 01:26:12;;;;;;;3.92;1.48;;;20.10;71.10;;;;;;5069565;28;20108;-65
2023/09/20 01:28:38;;;;;;;2.20;0.80;;;20.10;71.20;;;;;;5065600;28;20060;-66
2023/09/20 01:31:07;;;;;;;0.65;0.65;;;20.00;71.30;;;;;;5067532;28;20102;-65
2023/09/20 01:33:33;;;;;;;0.82;0.50;;;19.90;71.40;;;;;;5049636;28;20068;-65
2023/09/20 01:35:59;;;;;;;6.93;1.35;;;19.90;71.60;;;;;;5068841;28;20064;-67
2023/09/20 01:38:27;;;;;;;2.67;1.15;;;19.80;71.60;;;;;;5063967;28;20068;-65
2023/09/20 01:40:55;;;;;;;3.72;0.90;;;19.80;71.70;;;;;;5068855;28;20017;-65
2023/09/20 01:43:24;;;;;;;2.60;1.45;;;19.80;71.80;;;;;;5061693;28;20032;-65
2023/09/20 01:45:50;;;;;;;2.58;0.77;;;19.70;71.90;;;;;;5065736;28;20024;-65
2023/09/20 01:48:16;;;;;;;3.08;0.98;;;19.70;72.00;;;;;;5063257;28;20041;-65
2023/09/20 01:50:42;;;;;;;1.63;0.88;;;19.70;72.10;;;;;;5065280;28;20542;-65
2023/09/20 01:53:10;;;;;;;0.82;0.82;;;19.70;72.20;;;;;;5065767;28;20051;-66
2023/09/20 01:55:42;;;;;;;1.25;1.10;;;19.60;72.20;;;;;;5060891;28;20033;-64
2023/09/20 01:58:08;;;;;;;1.00;0.82;;;19.60;72.30;;;;;;5031333;28;20040;-66
2023/09/20 02:00:38;;;;;;;1.10;0.68;;;19.60;72.60;;;;;;5044371;28;20098;-65
2023/09/20 02:03:14;;;;;;;3.95;0.80;;;19.60;72.50;;;;;;5064910;28;20020;-65
2023/09/20 02:05:40;;;;;;;2.40;0.60;;;19.60;72.50;;;;;;5059117;28;20555;-65
2023/09/20 02:08:08;;;;;;;1.38;0.80;;;19.50;72.60;;;;;;5047534;28;20040;-66
2023/09/20 02:10:36;;;;;;;0.70;0.70;;;19.50;72.60;;;;;;5067129;28;20028;-66
2023/09/20 02:13:02;;;;;;;2.30;1.38;;;19.50;72.70;;;;;;5059477;28;20043;-66
2023/09/20 02:15:29;;;;;;;1.38;1.00;;;19.50;72.80;;;;;;5065155;28;20029;-65
2023/09/20 02:17:55;;;;;;;0.75;0.75;;;19.40;72.80;;;;;;5063026;28;20020;-65
2023/09/20 02:20:23;;;;;;;1.75;0.95;;;19.40;72.90;;;;;;5058067;28;20106;-65
2023/09/20 02:22:54;;;;;;;2.15;0.88;;;19.40;73.00;;;;;;5060030;28;20078;-67
2023/09/20 02:25:20;;;;;;;1.85;0.77;;;19.40;73.20;;;;;;5045474;28;20836;-65
2023/09/20 02:27:50;;;;;;;3.88;1.27;;;19.30;73.20;;;;;;5061102;28;20033;-66
2023/09/20 02:30:19;;;;;;;1.67;0.80;;;19.40;73.20;;;;;;5057093;28;20480;-66
2023/09/20 02:32:50;;;;;;;1.92;0.82;;;19.40;73.10;;;;;;5045253;28;20082;-66
2023/09/20 02:35:16;;;;;;;1.85;0.63;;;19.40;73.20;;;;;;5060860;28;20438;-66
2023/09/20 02:37:43;;;;;;;0.75;0.73;;;19.30;73.20;;;;;;5048501;28;20040;-66
2023/09/20 02:40:19;;;;;;;1.35;0.80;;;19.40;73.50;;;;;;5062990;28;20352;-66
2023/09/20 02:42:48;;;;;;;0.60;0.60;;;19.40;73.20;;;;;;5063259;28;20021;-65
2023/09/20 02:45:18;;;;;;;0.90;0.60;;;19.40;73.30;;;;;;5065347;28;20032;-66
2023/09/20 02:47:48;;;;;;;1.50;1.15;;;19.30;73.30;;;;;;5061094;28;20043;-65
2023/09/20 02:50:19;;;;;;;2.25;0.80;;;19.30;73.60;;;;;;5060422;28;20021;-65
2023/09/20 02:52:47;;;;;;;3.00;0.70;;;19.20;73.80;;;;;;5060675;28;20498;-65
2023/09/20 02:55:15;;;;;;;1.95;0.70;;;19.20;74.00;;;;;;5062659;28;20486;-65
2023/09/20 02:57:42;;;;;;;2.70;0.73;;;19.10;73.90;;;;;;5064233;28;20068;-66
2023/09/20 03:00:16;;;;;;;3.03;1.00;;;19.20;74.10;;;;;;5066751;28;20052;-66
2023/09/20 03:02:46;;;;;;;1.05;0.70;;;19.10;74.00;;;;;;5065855;28;20101;-66
2023/09/20 03:05:18;;;;;;;1.10;0.80;;;19.10;74.10;;;;;;5063614;28;20032;-65
2023/09/20 03:07:48;;;;;;;;;;;19.10;74.20;;;;;;5066903;28;20107;-67
2023/09/20 03:10:16;;;;;;;1.20;0.50;;;19.10;74.20;;;;;;5062280;28;20461;-67
2023/09/20 03:12:44;;;;;;;1.40;1.17;;;19.00;74.40;;;;;;5065209;28;20107;-66
2023/09/20 03:15:11;;;;;;;1.02;0.65;;;19.00;74.40;;;;;;5062793;28;20488;-67
2023/09/20 03:17:39;;;;;;;2.60;0.85;;;19.00;74.50;;;;;;5063589;28;20491;-67
2023/09/20 03:20:40;;;;;;;0.73;0.73;;;18.90;74.40;;;;;;5065078;28;20017;-66
2023/09/20 03:23:05;;;;;;;1.83;0.70;;;18.90;74.60;;;;;;5061715;28;20112;-67
2023/09/20 03:25:38;;;;;;;2.70;1.00;;;18.90;74.60;;;;;;5045171;28;20025;-67
2023/09/20 03:28:08;;;;;;;1.40;0.60;;;18.90;74.70;;;;;;5064921;28;20067;-67
2023/09/20 03:30:36;;;;;;;2.28;1.17;;;18.90;74.60;;;;;;5064717;28;20024;-67
2023/09/20 03:33:02;;;;;;;5.25;1.65;;;18.90;74.70;;;;;;5060302;28;20020;-67
2023/09/20 03:35:28;;;;;;;1.15;0.90;;;18.90;74.70;;;;;;5057771;28;20047;-67
2023/09/20 03:37:54;;;;;;;0.93;0.73;;;18.90;74.90;;;;;;5047081;28;20040;-67
2023/09/20 03:40:21;;;;;;;1.55;0.98;;;18.90;75.50;;;;;;5062468;28;20060;-66
2023/09/20 03:42:48;;;;;;;1.77;1.02;;;18.80;74.90;;;;;;5042104;28;20495;-67
2023/09/20 03:45:15;;;;;;;1.45;0.60;;;18.90;75.50;;;;;;5056551;28;20156;-67
2023/09/20 03:47:42;;;;;;;1.15;0.77;;;18.80;75.00;;;;;;5024129;28;20383;-66
2023/09/20 03:50:09;;;;;;;3.42;0.85;;;18.90;75.00;;;;;;5062064;28;20028;-67
2023/09/20 03:52:42;;;;;;;2.08;0.57;;;18.90;75.10;;;;;;5041602;28;20036;-67
2023/09/20 03:55:08;;;;;;;0.80;0.60;;;18.90;75.30;;;;;;5045600;28;20028;-67
2023/09/20 03:57:34;;;;;;;0.63;0.60;;;18.90;75.40;;;;;;5064091;28;20032;-67
2023/09/20 04:00:16;;;;;;;3.08;0.70;;;18.90;75.40;;;;;;5041676;28;20036;-67
2023/09/20 04:02:42;;;;;;;0.55;0.55;;;18.90;75.50;;;;;;5057534;28;20028;-67
2023/09/20 04:05:13;;;;;;;2.15;0.65;;;18.80;75.60;;;;;;5059408;28;20021;-68
2023/09/20 04:07:39;;;;;;;0.40;0.40;;;18.90;75.70;;;;;;5063671;28;20028;-67
2023/09/20 04:10:07;;;;;;;5.93;1.30;;;18.90;75.70;;;;;;5061281;28;20101;-67
2023/09/20 04:12:33;;;;;;;0.73;0.50;;;18.90;75.60;;;;;;5065134;28;20499;-67
2023/09/20 04:14:58;;;;;;;2.22;0.75;;;18.90;75.50;;;;;;5030238;28;20025;-68
2023/09/20 04:17:27;;;;;;;1.80;1.10;;;18.90;75.50;;;;;;5058765;28;20044;-67
2023/09/20 04:19:56;;;;;;;1.52;1.02;;;19.00;75.60;;;;;;5064488;28;20028;-67
2023/09/20 04:22:21;;;;;;;3.83;0.90;;;19.00;75.70;;;;;;5063547;28;20024;-67
2023/09/20 04:24:47;;;;;;;0.63;0.63;;;19.00;75.80;;;;;;5064332;28;20463;-67
2023/09/20 04:27:13;;;;;;;0.60;0.50;;;19.00;75.80;;;;;;5065116;28;20037;-65
2023/09/20 04:29:39;;;;;;;4.80;0.70;;;19.00;75.70;;;;;;5062305;28;20468;-65
2023/09/20 04:32:05;;;;;;;1.92;1.23;;;19.00;75.80;;;;;;5061952;28;20036;-65
2023/09/20 04:34:30;;;;;;;5.00;1.55;;;19.00;75.80;;;;;;5064801;28;20503;-67
2023/09/20 04:36:56;;;;;;;1.27;0.85;;;19.00;75.80;;;;;;5065480;28;20024;-65
2023/09/20 04:39:27;;;;;;;1.77;0.82;;;19.00;76.00;;;;;;5046273;28;20102;-65
2023/09/20 04:41:53;;;;;;;2.20;1.25;;;19.00;76.20;;;;;;5065370;28;20032;-67
2023/09/20 04:44:20;;;;;;;2.70;1.90;;;19.00;76.10;;;;;;5062570;28;20025;-67
2023/09/20 04:46:47;;;;;;;4.10;0.65;;;19.00;76.10;;;;;;5068372;28;20040;-67
2023/09/20 04:49:14;;;;;;;3.17;0.98;;;19.00;76.00;;;;;;5067562;28;20078;-65
2023/09/20 04:51:42;;;;;;;2.65;1.20;;;19.00;76.10;;;;;;5068124;28;20032;-65
2023/09/20 04:54:08;;;;;;;2.25;0.88;;;19.00;76.10;;;;;;5068542;28;20089;-68
2023/09/20 04:56:36;;;;;;;2.78;1.20;;;19.00;76.20;;;;;;5067409;28;20033;-66
2023/09/20 04:59:04;;;;;;;1.65;0.75;;;19.00;76.40;;;;;;5066868;28;20115;-66
2023/09/20 05:01:30;;;;;;;2.55;1.20;;;18.90;76.50;;;;;;5069273;28;20558;-66
2023/09/20 05:03:56;;;;;;;0.63;0.50;;;18.90;76.70;;;;;;5050356;28;20104;-65
2023/09/20 05:06:22;;;;;;;2.60;0.98;;;18.80;76.70;;;;;;5047483;28;20146;-66
2023/09/20 05:08:50;;;;;;;2.45;0.93;;;18.80;76.90;;;;;;5069480;28;20029;-66
2023/09/20 05:11:18;;;;;;;4.10;0.75;;;18.70;76.90;;;;;;5067466;28;20506;-66
2023/09/20 05:13:45;;;;;;;2.75;1.27;;;18.80;77.00;;;;;;5066716;28;20120;-66
2023/09/20 05:16:11;;;;;;;1.00;0.90;;;18.70;77.10;;;;;;5066505;28;20039;-67
2023/09/20 05:18:37;;;;;;;0.70;0.70;;;18.70;77.10;;;;;;5060514;28;20033;-67
2023/09/20 05:21:03;;;;;;;1.35;1.25;;;18.70;77.10;;;;;;5061326;28;20499;-66
2023/09/20 05:23:29;;;;;;;5.55;0.68;;;18.70;77.10;;;;;;5060781;28;20044;-66
2023/09/20 05:25:55;;;;;;;1.95;0.82;;;18.70;77.20;;;;;;5043424;28;20024;-66
2023/09/20 05:28:20;;;;;;;0.85;0.85;;;18.60;77.40;;;;;;5060106;28;20036;-66
2023/09/20 05:30:46;;;;;;;0.70;0.70;;;18.60;77.30;;;;;;5065717;28;20037;-66
2023/09/20 05:33:12;;;;;;;2.63;1.25;;;18.60;77.20;;;;;;5067689;28;20107;-66
2023/09/20 05:35:41;;;;;;;1.65;0.90;;;18.60;77.10;;;;;;5064054;28;20087;-66
2023/09/20 05:38:07;;;;;;;1.17;0.80;;;18.60;77.20;;;;;;5067599;28;20115;-66
2023/09/20 05:40:37;;;;;;;5.00;0.77;;;18.60;77.20;;;;;;5066296;28;20037;-66
2023/09/20 05:43:04;;;;;;;2.45;1.08;;;18.70;77.30;;;;;;5048611;28;20051;-66
2023/09/20 05:45:32;;;;;;;1.20;0.63;;;18.70;77.30;;;;;;5065718;28;20050;-66
2023/09/20 05:47:58;;;;;;;0.63;0.63;;;18.70;77.20;;;;;;5066554;28;20037;-66
2023/09/20 05:50:33;;;;;;;3.40;1.30;;;18.70;77.10;;;;;;5065788;28;20567;-66
2023/09/20 05:53:00;;;;;;;3.13;1.33;;;18.70;77.20;;;;;;5065561;28;20124;-66
2023/09/20 05:55:26;;;;;;;1.98;0.95;;;18.70;77.40;;;;;;5067204;28;20526;-66
2023/09/20 05:57:54;;;;;;;1.35;1.00;;;18.70;77.50;;;;;;5064652;28;20028;-66
2023/09/20 06:00:23;;;;;;;1.92;1.48;;;18.70;77.40;;;;;;5065286;28;20438;-67
2023/09/20 06:02:49;;;;;;;3.75;1.30;;;18.80;77.30;;;;;;5049675;28;20149;-66
2023/09/20 06:05:24;;;;;;;1.17;0.88;;;18.80;77.30;;;;;;5067921;28;20115;-67
2023/09/20 06:07:51;;;;;;;1.50;0.93;;;18.80;77.20;;;;;;5039396;28;20036;-66
2023/09/20 06:10:18;;;;;;;2.38;1.02;;;18.90;77.10;;;;;;5069164;28;20031;-67
2023/09/20 06:12:45;;;;;;;5.88;1.33;;;18.90;77.20;;;;;;5068518;28;20029;-67
2023/09/20 06:15:14;;;;;;;1.88;1.40;;;18.90;77.30;;;;;;5058445;28;20056;-66
2023/09/20 06:17:42;;;;;;;1.15;0.68;;;18.90;77.30;;;;;;5059281;28;20120;-66
2023/09/20 06:20:12;;;;;;;1.50;0.85;;;18.90;77.20;;;;;;5068983;28;20025;-67
2023/09/20 06:22:38;;;;;;;1.85;0.80;;;19.00;77.20;;;;;;5061873;28;20025;-66
2023/09/20 06:25:07;;;;;;;1.42;0.65;;;19.00;77.10;;;;;;5032022;28;20115;-66
2023/09/20 06:27:33;;;;;;;2.67;0.88;;;19.10;77.00;;;;;;5064078;28;20036;-66
2023/09/20 06:30:05;;;;;;;1.52;0.90;;;19.10;77.00;;;;;;5063601;28;20029;-66
2023/09/20 06:32:33;;;;;;;;;;;19.20;77.00;;;;;;5057561;28;20044;-67
2023/09/20 06:35:02;;;;;;;4.30;1.00;;;19.20;77.00;;;;;;5021820;28;19924;-66
2023/09/20 06:37:28;;;;;;;3.25;1.08;;;19.20;76.90;;;;;;5062148;28;20033;-66
2023/09/20 06:39:55;;;;;;;1.55;1.17;;;19.20;76.90;;;;;;5036925;28;20395;-66
2023/09/20 06:42:21;;;;;;;6.60;0.70;;;19.20;76.90;;;;;;5057648;28;20048;-66
2023/09/20 06:44:46;;;;;;;4.30;1.88;;;19.20;76.90;;;;;;5058197;28;20380;-66
2023/09/20 06:47:12;;;;;;;4.68;1.27;;;19.30;76.90;;;;;;5033081;28;20029;-66
2023/09/20 06:49:38;;;;;;;2.47;0.88;;;19.40;76.80;;;;;;5060277;28;20044;-66
2023/09/20 06:52:05;;;;;;;3.25;0.90;;;19.40;76.90;;;;;;5041330;28;20043;-67
2023/09/20 06:54:35;;;;;;;3.80;1.05;;;19.40;76.60;;;;;;5041311;28;20111;-66
2023/09/20 06:57:05;;;;;;;4.10;1.13;;;19.40;76.60;;;;;;5064392;28;20467;-67
2023/09/20 06:59:32;;;;;;;3.80;0.82;;;19.50;76.70;;;;;;5047045;28;20747;-67
2023/09/20 07:02:01;;;;;;;1.15;1.05;;;19.50;76.40;;;;;;5040550;28;20033;-65
2023/09/20 07:04:27;;;;;;;3.25;0.95;;;19.50;76.30;;;;;;5062922;28;20060;-65
2023/09/20 07:06:55;;;;;;;0.73;0.73;;;19.50;76.40;;;;;;5066653;28;20036;-67
2023/09/20 07:09:21;;;;;;;1.80;0.68;;;19.60;76.30;;;;;;5049747;28;20037;-66
2023/09/20 07:11:48;;;;;;;1.08;0.88;;;19.60;76.20;;;;;;5067200;28;20020;-66
2023/09/20 07:14:14;;;;;;;0.43;0.43;;;19.60;76.30;;;;;;5049817;28;20514;-65
2023/09/20 07:16:40;;;;;;;2.05;1.00;;;19.70;76.30;;;;;;5064460;28;20031;-66
2023/09/20 07:19:06;;;;;;;4.07;1.25;;;19.80;76.20;;;;;;5050149;28;20021;-65
2023/09/20 07:21:37;;;;;;;2.97;1.40;;;19.80;75.80;;;;;;5067686;28;21304;-67
2023/09/20 07:24:12;;;;;;;0.73;0.60;;;19.80;75.70;;;;;;5054693;28;20067;-65
2023/09/20 07:26:38;;;;;;;1.15;0.90;;;19.80;75.70;;;;;;5050760;28;20040;-65
2023/09/20 07:29:05;;;;;;;1.48;0.82;;;19.80;75.80;;;;;;5063077;28;20047;-65
2023/09/20 07:31:36;;;;;;;2.13;1.10;;;20.00;75.80;;;;;;5067575;28;20040;-65
2023/09/20 07:34:04;;;;;;;0.73;0.73;;;20.00;75.60;;;;;;5061813;28;20044;-66
2023/09/20 07:36:33;;;;;;;0.65;0.50;;;20.10;75.30;;;;;;5065179;28;20048;-66
2023/09/20 07:38:59;;;;;;;1.10;0.90;;;20.10;75.30;;;;;;5067334;28;20047;-66
2023/09/20 07:41:25;;;;;;;2.00;0.60;;;20.10;75.20;;;;;;5068257;28;20048;-67
2023/09/20 07:43:53;;;;;;;0.80;0.80;;;20.10;75.30;;;;;;5065373;28;20063;-67
2023/09/20 07:46:23;;;;;;;1.50;0.77;;;20.10;75.40;;;;;;5067297;28;20032;-66
2023/09/20 07:48:50;;;;;;;3.67;0.93;;;20.10;75.40;;;;;;5066622;28;20119;-65
2023/09/20 07:51:24;;;;;;;1.27;0.95;;;20.10;75.20;;;;;;5065978;28;20028;-66
2023/09/20 07:53:53;;;;;;;1.55;0.90;;;20.00;75.30;;;;;;5058957;28;20131;-66
2023/09/20 07:56:20;;;;;;;1.77;0.80;;;20.10;75.30;;;;;;5064421;28;20032;-66
2023/09/20 07:58:46;;;;;;;6.88;1.50;;;20.10;75.30;;;;;;5058679;28;20115;-66
2023/09/20 08:01:19;;;;;;;2.92;0.52;;;20.10;75.20;;;;;;5063292;28;20056;-66
2023/09/20 08:03:52;;;;;;;3.00;1.27;;;20.10;75.20;;;;;;5060439;28;20082;-67
2023/09/20 08:06:21;;;;;;;0.85;0.57;;;20.20;75.20;;;;;;5056425;28;20029;-67
2023/09/20 08:08:50;;;;;;;1.77;1.00;;;20.20;75.10;;;;;;5063340;28;20029;-65
2023/09/20 08:11:15;;;;;;;0.68;0.68;;;20.20;75.20;;;;;;5051725;28;20476;-65
2023/09/20 08:13:41;;;;;;;1.13;0.70;;;20.40;75.20;;;;;;5061251;28;20094;-66
2023/09/20 08:16:10;;;;;;;2.55;0.90;;;20.40;74.60;;;;;;5061065;28;20040;-66
2023/09/20 08:21:20;;;;;;;4.65;0.82;;;20.50;74.20;;;;;;5062182;28;20051;-65
2023/09/20 09:02:22;;;;;;;1.88;1.23;;;21.00;73.30;;;;;;5055753;28;20296;-67
2023/09/20 09:04:53;;;;;;;1.63;1.00;;;21.00;73.20;;;;;;5065871;28;20040;-67
2023/09/20 09:07:19;;;;;;;2.63;1.27;;;20.90;73.10;;;;;;5065703;28;20035;-67
2023/09/20 09:09:49;;;;;;;1.95;0.88;;;20.90;73.30;;;;;;5068362;28;20480;-67
2023/09/20 09:12:15;;;;;;;1.02;0.93;;;20.90;73.40;;;;;;5065696;28;20037;-67
2023/09/20 09:14:41;;;;;;;1.08;0.90;;;20.80;73.50;;;;;;5057013;28;20048;-67
2023/09/20 09:17:09;;;;;;;1.15;0.93;;;20.80;73.30;;;;;;5052628;28;20036;-66
2023/09/20 09:19:37;;;;;;;0.65;0.60;;;20.90;73.20;;;;;;5051001;28;20033;-67
2023/09/20 09:22:03;;;;;;;3.08;0.80;;;20.90;73.20;;;;;;5065468;28;20625;-67
2023/09/20 09:24:43;;;;;;;2.50;1.00;;;21.00;73.00;;;;;;5046119;28;20033;-68
2023/09/20 09:27:09;;;;;;;1.70;1.23;;;21.00;73.30;;;;;;5066391;28;20647;-66
2023/09/20 09:29:35;;;;;;;1.38;0.95;;;21.00;73.20;;;;;;5048786;28;20115;-67
2023/09/20 09:32:02;;;;;;;2.80;1.02;;;21.10;72.70;;;;;;5064498;28;20025;-67
2023/09/20 09:34:28;;;;;;;1.20;0.52;;;21.10;72.30;;;;;;5067741;28;20055;-67
2023/09/20 09:36:53;;;;;;;0.88;0.68;;;21.20;72.20;;;;;;5067683;28;20040;-67
2023/09/20 09:39:19;;;;;;;2.53;1.20;;;21.20;72.00;;;;;;5062087;28;20910;-67
2023/09/20 09:41:46;;;;;;;0.73;0.60;;;21.20;71.90;;;;;;5064309;28;20102;-67
2023/09/20 09:44:13;;;;;;;1.25;1.15;;;21.20;71.60;;;;;;5064551;28;20055;-67
2023/09/20 09:46:39;;;;;;;1.23;0.75;;;21.20;72.00;;;;;;5060377;28;20020;-67
2023/09/20 09:49:11;;;;;;;3.47;1.00;;;21.20;71.70;;;;;;5064772;28;20036;-67
2023/09/20 09:51:50;;;;;;;1.13;0.68;;;21.30;71.10;;;;;;5049363;28;20037;-67
2023/09/20 09:54:18;;;;;;;0.85;0.80;;;21.40;70.80;;;;;;5063255;28;20058;-66
2023/09/20 09:56:44;;;;;;;1.27;0.90;;;21.50;71.00;;;;;;5062949;28;20040;-67
2023/09/20 09:59:10;;;;;;;0.95;0.80;;;21.50;70.30;;;;;;5059046;28;20290;-68
2023/09/20 10:01:40;;;;;;;1.63;1.20;;;21.60;70.30;;;;;;5065138;28;20146;-65
2023/09/20 10:04:13;;;;;;;1.25;0.77;;;21.80;70.00;;;;;;5062413;28;20104;-65
2023/09/20 10:06:53;;;;;;;1.80;0.80;;;21.90;70.00;;;;;;5067653;28;20605;-65
2023/09/20 10:09:24;;;;;;;3.70;1.13;;;22.10;69.60;;;;;;5046138;28;20040;-65
2023/09/20 10:11:50;;;;;;;6.88;1.33;;;22.10;68.60;;;;;;5067444;28;20031;-69
2023/09/20 10:14:21;;;;;;;1.67;1.08;;;22.10;68.70;;;;;;5065824;28;20024;-70
2023/09/20 10:16:48;;;;;;;3.45;1.00;;;22.10;68.80;;;;;;5066706;28;20035;-70
2023/09/20 10:19:15;;;;;;;1.73;1.15;;;22.10;69.00;;;;;;5062972;28;20023;-70
2023/09/20 10:22:08;;;;;;;1.25;0.90;;;22.10;68.60;;;;;;5066437;28;20020;-70
2023/09/20 10:24:54;;;;;;;2.70;0.93;;;22.10;69.00;;;;;;5055848;28;20028;-65
2023/09/20 10:27:28;;;;;;;2.88;1.23;;;22.10;69.00;;;;;;5061425;28;20082;-70
2023/09/20 10:30:05;;;;;;;2.40;1.13;;;22.00;68.70;;;;;;5043236;28;20452;-71
2023/09/20 10:32:32;;;;;;;1.50;0.85;;;22.00;68.80;;;;;;5063619;28;20041;-70
2023/09/20 10:35:19;;;;;;;2.08;1.10;;;22.00;69.10;;;;;;5061936;28;20055;-71
2023/09/20 10:38:00;;;;;;;2.95;1.23;;;22.00;69.30;;;;;;5057989;28;20041;-70
2023/09/20 10:40:57;;;;;;;1.00;0.68;;;22.00;69.40;;;;;;5062635;28;20024;-70
2023/09/20 10:43:46;;;;;;;1.30;1.20;;;22.10;69.40;;;;;;5039441;28;20102;-70
2023/09/20 10:46:14;;;;;;;1.10;0.73;;;22.20;69.10;;;;;;5041196;28;20421;-70
2023/09/20 10:48:49;;;;;;;0.82;0.68;;;22.20;69.40;;;;;;5053547;28;20078;-67
2023/09/20 10:51:54;;;;;;;6.43;1.50;;;22.30;69.00;;;;;;5046090;28;20041;-70
2023/09/20 10:54:29;;;;;;;1.15;0.80;;;22.70;68.40;;;;;;5059302;28;20096;-69
2023/09/20 10:57:02;;;;;;;1.05;0.82;;;23.00;67.60;;;;;;5062395;28;20016;-64
2023/09/20 10:59:30;;;;;;;2.13;0.70;;;23.10;67.00;;;;;;5057355;28;20179;-64
2023/09/20 11:02:12;;;;;;;1.13;1.05;;;23.10;66.60;;;;;;5061628;28;20033;-65
2023/09/20 11:04:38;;;;;;;0.63;0.63;;;23.20;66.70;;;;;;5055468;28;20052;-64
2023/09/20 11:07:05;;;;;;;1.52;1.08;;;23.40;66.50;;;;;;5057654;28;20577;-67
2023/09/20 11:09:33;;;;;;;0.63;0.60;;;23.50;66.10;;;;;;5057938;28;20392;-67
2023/09/20 11:12:06;;;;;;;1.65;0.73;;;23.40;65.90;;;;;;5059935;28;20047;-67
2023/09/20 11:14:33;;;;;;;0.80;0.70;;;23.30;66.20;;;;;;5057721;28;20324;-67
2023/09/20 11:16:59;;;;;;;0.73;0.73;;;23.30;65.80;;;;;;5062055;28;20032;-67
2023/09/20 11:19:26;;;;;;;0.88;0.55;;;23.40;65.80;;;;;;5063059;28;20111;-67
2023/09/20 11:21:52;;;;;;;1.75;0.90;;;23.60;65.60;;;;;;5060941;28;20025;-68
2023/09/20 11:24:19;;;;;;;1.75;0.93;;;23.50;65.60;;;;;;5060586;28;20119;-67
2023/09/20 11:26:47;;;;;;;1.05;0.70;;;23.70;65.40;;;;;;5060615;28;20233;-67
2023/09/20 11:29:16;;;;;;;0.60;0.60;;;23.80;65.20;;;;;;5063849;28;20480;-68
2023/09/20 11:31:44;;;;;;;0.75;0.75;;;23.80;64.90;;;;;;5048872;28;20502;-67
2023/09/20 11:34:11;;;;;;;2.00;0.65;;;23.70;64.50;;;;;;5062633;28;20071;-67
2023/09/20 11:36:38;;;;;;;0.85;0.77;;;23.70;64.30;;;;;;5063628;28;20438;-67
2023/09/20 11:39:07;;;;;;;1.05;0.73;;;23.60;64.60;;;;;;5066193;28;20303;-67
2023/09/20 11:41:35;;;;;;;0.73;0.60;;;23.60;64.70;;;;;;5060333;28;20032;-67
2023/09/20 11:44:02;;;;;;;1.55;0.90;;;23.50;64.80;;;;;;5061308;28;20040;-67
2023/09/20 11:46:31;;;;;;;0.63;0.55;;;23.40;65.20;;;;;;5030727;28;20426;-67
2023/09/20 11:49:01;;;;;;;0.88;0.88;;;23.30;65.20;;;;;;5059029;28;20043;-67
2023/09/20 11:51:28;;;;;;;2.33;0.70;;;23.30;65.60;;;;;;5065986;28;20120;-67
2023/09/20 11:53:55;;;;;;;0.85;0.75;;;23.30;65.90;;;;;;5059000;28;20032;-67
2023/09/20 11:56:31;;;;;;;0.68;0.68;;;23.70;65.80;;;;;;5042017;28;20128;-67
2023/09/20 11:59:00;;;;;;;1.27;0.98;;;24.10;65.20;;;;;;5064293;28;20032;-67
2023/09/20 12:01:30;;;;;;;2.20;0.77;;;24.40;63.50;;;;;;5067257;28;20032;-68
2023/09/20 12:04:03;;;;;;;1.38;0.50;;;24.50;63.70;;;;;;5056051;28;20138;-67
2023/09/20 12:06:29;;;;;;;1.48;0.98;;;24.70;63.50;;;;;;5062610;28;20035;-67
2023/09/20 12:08:55;;;;;;;1.95;0.85;;;24.80;62.80;;;;;;5065244;28;20450;-67
2023/09/20 12:11:22;;;;;;;1.27;0.82;;;24.90;62.80;;;;;;5066418;28;20035;-69
2023/09/20 12:13:48;;;;;;;1.33;0.70;;;25.20;62.10;;;;;;5068094;28;20052;-67
2023/09/20 12:16:16;;;;;;;1.30;0.70;;;25.20;60.30;;;;;;5066852;28;20047;-67
2023/09/20 12:18:42;;;;;;;0.57;0.55;;;25.00;60.10;;;;;;5067265;28;20188;-67
2023/09/20 12:21:08;;;;;;;2.20;0.82;;;24.90;60.90;;;;;;5064061;28;20021;-67
2023/09/20 12:23:41;;;;;;;1.80;0.70;;;24.80;60.90;;;;;;5062875;28;20029;-67
2023/09/20 12:26:12;;;;;;;0.75;0.55;;;24.70;61.10;;;;;;5064755;28;20448;-67
2023/09/20 12:28:38;;;;;;;;;;;24.60;61.20;;;;;;5063806;28;20029;-68
2023/09/20 12:31:04;;;;;;;0.80;0.60;;;24.50;61.70;;;;;;5066431;28;20358;-67
2023/09/20 12:33:31;;;;;;;2.35;0.52;;;24.30;62.50;;;;;;5053603;28;20174;-67
2023/09/20 12:35:59;;;;;;;1.60;0.50;;;24.30;62.50;;;;;;5052583;28;20045;-67
2023/09/20 12:38:29;;;;;;;1.48;0.70;;;24.20;62.80;;;;;;5066445;28;20028;-68
2023/09/20 12:40:58;;;;;;;0.47;0.47;;;24.20;63.00;;;;;;5068637;28;20112;-68
2023/09/20 12:43:25;;;;;;;0.77;0.73;;;24.20;62.80;;;;;;5068168;28;20040;-68
2023/09/20 12:45:54;;;;;;;0.73;0.60;;;24.20;62.80;;;;;;5066093;28;20024;-67
2023/09/20 12:48:22;;;;;;;0.40;0.40;;;24.20;62.70;;;;;;5064882;28;20028;-67
2023/09/20 12:50:48;;;;;;;1.08;0.68;;;24.30;62.80;;;;;;5066363;28;20078;-67
2023/09/20 12:53:13;;;;;;;1.08;0.82;;;24.30;62.70;;;;;;5064948;28;20036;-67
2023/09/20 12:55:40;;;;;;;0.85;0.50;;;24.20;62.70;;;;;;5064122;28;20391;-67
2023/09/20 12:58:07;;;;;;;0.57;0.52;;;24.20;62.70;;;;;;5068186;28;20430;-67
2023/09/20 13:00:34;;;;;;;1.35;0.70;;;24.10;62.70;;;;;;5065778;28;20026;-67
2023/09/20 13:03:00;;;;;;;0.95;0.65;;;24.10;62.00;;;;;;5064033;28;20391;-66
2023/09/20 13:05:27;;;;;;;0.85;0.70;;;24.00;62.20;;;;;;5060119;28;20380;-67
2023/09/20 13:07:56;;;;;;;0.75;0.70;;;24.00;62.40;;;;;;5063964;28;20110;-67
2023/09/20 13:10:22;;;;;;;1.50;1.05;;;24.10;62.30;;;;;;5065374;28;20404;-67
2023/09/20 13:12:47;;;;;;;2.28;0.60;;;24.10;61.70;;;;;;5063087;28;20082;-67
2023/09/20 13:15:14;;;;;;;0.85;0.80;;;24.20;62.10;;;;;;5064115;28;20036;-67
2023/09/20 13:17:44;;;;;;;2.70;0.80;;;24.50;61.70;;;;;;5034110;28;20041;-67
2023/09/20 13:20:14;;;;;;;0.50;0.50;;;24.60;60.40;;;;;;5066288;28;20414;-67
2023/09/20 13:22:41;;;;;;;0.70;0.57;;;24.60;60.90;;;;;;5061373;28;20681;-66
2023/09/20 13:25:14;;;;;;;0.60;0.60;;;24.40;61.10;;;;;;5058448;28;20025;-67
2023/09/20 13:27:40;;;;;;;1.83;0.85;;;24.40;61.60;;;;;;5063571;28;20029;-66
2023/09/20 13:30:13;;;;;;;1.15;0.90;;;24.40;61.20;;;;;;5062109;28;20227;-66
2023/09/20 13:32:40;;;;;;;0.70;0.70;;;24.40;60.90;;;;;;5045243;28;20031;-67
2023/09/20 13:35:12;;;;;;;0.52;0.52;;;24.70;60.50;;;;;;5036862;28;20025;-67